createdAt,value
2019-04-22T00:02:13.868Z,47.30
2019-04-22T00:04:58.739Z,47.60
2019-04-22T00:07:53.341Z,47.50
2019-04-22T00:10:19.502Z,47.50
2019-04-22T00:12:57.783Z,47.10
2019-04-22T00:15:20.120Z,47.60
2019-04-22T00:18:11.658Z,47.90
2019-04-22T00:20:36.769Z,47.90
2019-04-22T00:23:10.104Z,48.10
2019-04-22T00:25:49.420Z,48.10
2019-04-22T00:28:19.497Z,48.60
2019-04-22T00:30:47.122Z,48.60
2019-04-22T00:33:20.441Z,48.70
2019-04-22T00:35:54.759Z,49.20
2019-04-22T00:38:31.442Z,49.40
2019-04-22T00:41:05.849Z,49.50
2019-04-22T00:43:39.493Z,50.10
2019-04-22T00:46:11.036Z,51.80
2019-04-22T00:48:57.947Z,51.50
2019-04-22T00:51:25.269Z,51.10
2019-04-22T00:53:59.366Z,51.10
2019-04-22T00:56:23.193Z,51.70
2019-04-22T00:58:59.146Z,51.60
2019-04-22T01:01:37.269Z,52.10
2019-04-22T01:04:14.965Z,53.10
2019-04-22T01:06:38.609Z,53.10
2019-04-22T01:09:17.114Z,52.50
2019-04-22T01:12:04.708Z,52.60
2019-04-22T01:14:28.058Z,53.10
2019-04-22T01:17:00.060Z,53.00
2019-04-22T01:19:38.653Z,53.10
2019-04-22T01:22:06.141Z,53.30
2019-04-22T01:24:32.714Z,53.60
2019-04-22T01:27:08.137Z,53.30
2019-04-22T01:29:39.872Z,53.30
2019-04-22T01:31:58.101Z,53.10
2019-04-22T01:34:49.344Z,53.60
2019-04-22T01:37:27.177Z,53.50
2019-04-22T01:40:06.106Z,53.50
2019-04-22T01:42:42.794Z,54.20
2019-04-22T01:45:16.083Z,54.20
2019-04-22T01:47:45.242Z,54.20
2019-04-22T01:50:22.537Z,54.50
2019-04-22T01:52:58.674Z,55.00
2019-04-22T01:55:31.048Z,55.00
2019-04-22T01:57:59.863Z,55.60
2019-04-22T02:00:35.893Z,55.60
2019-04-22T02:03:10.542Z,57.10
2019-04-22T02:05:46.876Z,57.00
2019-04-22T02:08:28.430Z,57.50
2019-04-22T02:19:57.592Z,59.10
2019-04-22T02:22:50.043Z,59.30
2019-04-22T02:25:08.353Z,59.40
2019-04-22T02:27:51.468Z,59.50
2019-04-22T02:30:13.842Z,59.80
2019-04-22T02:33:08.150Z,60.10
2019-04-22T02:35:38.317Z,60.70
2019-04-22T02:38:09.860Z,60.90
2019-04-22T02:40:46.152Z,61.60
2019-04-22T02:43:16.871Z,62.60
2019-04-22T02:45:52.580Z,62.50
2019-04-22T02:48:31.887Z,63.30
2019-04-22T02:50:56.351Z,64.10
2019-04-22T02:53:46.521Z,64.00
2019-04-22T02:56:02.567Z,64.20
2019-04-22T02:58:44.933Z,64.20
2019-04-22T03:03:53.971Z,64.10
2019-04-22T03:06:32.924Z,65.30
2019-04-22T03:08:45.586Z,66.10
2019-04-22T03:11:22.280Z,67.10
2019-04-22T03:13:55.149Z,68.90
2019-04-22T03:19:02.380Z,69.40
2019-04-22T03:21:31.843Z,70.20
2019-04-22T03:29:13.363Z,72.90
2019-04-22T03:43:35.888Z,74.70
2019-04-22T03:46:03.867Z,75.30
2019-04-22T03:48:50.464Z,75.30
2019-04-22T03:51:25.323Z,76.10
2019-04-22T03:53:50.020Z,76.10
2019-04-22T03:56:57.239Z,77.50
2019-04-22T03:58:57.000Z,78.40
2019-04-22T04:01:37.087Z,78.80
2019-04-22T04:06:52.431Z,79.50
2019-04-22T04:09:21.333Z,81.10
2019-04-22T04:14:37.351Z,80.50
2019-04-22T04:16:56.247Z,81.10
2019-04-22T04:58:47.001Z,87.60
2019-04-22T05:01:20.451Z,88.50
2019-04-22T05:03:49.738Z,88.90
2019-04-22T05:06:21.448Z,89.40
2019-04-22T05:11:24.840Z,90.10
2019-04-22T05:13:57.663Z,91.50
2019-04-22T05:21:42.197Z,91.20
2019-04-22T05:24:19.413Z,91.70
2019-04-22T05:26:52.349Z,91.10
2019-04-22T05:29:17.021Z,90.90
2019-04-22T05:31:52.185Z,90.60
2019-04-22T05:34:22.882Z,91.00
2019-04-22T05:36:52.491Z,90.70
2019-04-22T05:39:29.773Z,90.50
2019-04-22T05:44:48.000Z,90.30
2019-04-22T05:47:09.941Z,90.30
2019-04-22T05:49:41.692Z,89.90
2019-04-22T05:52:20.375Z,88.80
2019-04-22T05:55:00.446Z,88.80
2019-04-22T05:57:26.609Z,90.20
2019-04-22T05:59:59.670Z,89.90
2019-04-22T06:07:38.719Z,91.10
2019-04-22T06:10:23.802Z,90.80
2019-04-22T06:12:43.239Z,90.40
2019-04-22T06:15:18.391Z,90.50
2019-04-22T06:18:02.702Z,90.40
2019-04-22T06:20:33.955Z,89.90
2019-04-22T06:23:04.119Z,88.90
2019-04-22T06:26:05.246Z,88.50
2019-04-22T06:28:23.553Z,87.30
2019-04-22T06:30:49.029Z,86.50
2019-04-22T06:33:24.123Z,87.50
2019-04-22T06:41:04.260Z,76.40
2019-04-22T06:43:38.165Z,74.70
2019-04-22T06:46:11.610Z,74.30
2019-04-22T06:48:39.806Z,74.00
2019-04-22T07:10:49.118Z,68.40
2019-04-22T07:13:23.595Z,68.00
2019-04-22T07:15:59.600Z,66.00
2019-04-22T07:18:33.777Z,64.90
2019-04-22T07:21:01.400Z,63.90
2019-04-22T07:35:22.878Z,59.80
2019-04-22T07:37:50.520Z,59.30
2019-04-22T07:40:32.392Z,59.20
2019-04-22T07:42:57.097Z,58.60
2019-04-22T07:48:12.667Z,57.90
2019-04-22T07:50:49.341Z,57.90
2019-04-22T07:53:10.638Z,57.40
2019-04-22T07:55:49.013Z,57.20
2019-04-22T07:58:26.115Z,56.80
2019-04-22T08:00:57.781Z,56.80
2019-04-22T08:03:53.235Z,56.00
2019-04-22T08:06:17.502Z,55.10
2019-04-22T08:11:21.935Z,54.40
2019-04-22T08:13:43.782Z,53.90
2019-04-22T08:16:21.754Z,52.90
2019-04-22T08:18:52.658Z,52.30
2019-04-22T08:21:22.277Z,52.20
2019-04-22T08:23:56.600Z,46.60
2019-04-22T08:26:34.318Z,46.00
2019-04-22T08:29:05.769Z,42.30
2019-04-22T08:31:40.423Z,42.20
2019-04-22T08:34:14.176Z,39.80
2019-04-22T08:39:18.751Z,38.50
2019-04-22T08:41:51.233Z,38.20
2019-04-22T08:44:39.148Z,37.00
2019-04-22T08:47:11.149Z,35.50
2019-04-22T08:49:42.446Z,35.60
2019-04-22T08:54:49.076Z,34.30
2019-04-22T08:57:18.297Z,34.40
2019-04-22T09:00:00.268Z,34.10
2019-04-22T09:02:25.761Z,33.50
2019-04-22T09:04:55.877Z,33.40
2019-04-22T09:07:33.085Z,33.10
2019-04-22T09:10:10.307Z,32.80
2019-04-22T09:12:53.269Z,32.20
2019-04-22T09:15:16.687Z,32.20
2019-04-22T09:17:47.254Z,32.40
2019-04-22T09:20:20.704Z,32.10
2019-04-22T09:22:56.938Z,32.00
2019-04-22T09:25:29.780Z,31.70
2019-04-22T09:28:03.297Z,31.70
2019-04-22T09:30:41.149Z,31.60
2019-04-22T09:33:13.980Z,31.00
2019-04-22T09:35:52.314Z,31.00
2019-04-22T09:40:52.501Z,31.40
2019-04-22T09:43:32.134Z,30.20
2019-04-22T09:46:04.179Z,30.90
2019-04-22T09:48:38.948Z,31.00
2019-04-22T09:51:07.072Z,31.10
2019-04-22T09:53:47.096Z,31.10
2019-04-22T09:56:17.873Z,31.40
2019-04-22T09:58:49.204Z,30.80
2019-04-22T10:01:38.572Z,30.40
2019-04-22T10:04:02.085Z,30.30
2019-04-22T10:09:27.183Z,30.30
2019-04-22T10:11:35.140Z,29.70
2019-04-22T10:14:18.724Z,29.70
2019-04-22T10:19:18.657Z,29.30
2019-04-22T10:24:26.422Z,28.20
2019-04-22T10:26:59.918Z,27.40
2019-04-22T10:29:39.248Z,27.40
2019-04-22T10:32:06.692Z,27.90
2019-04-22T10:34:28.309Z,28.50
2019-04-22T10:36:53.139Z,28.80
2019-04-22T10:39:37.846Z,28.10
2019-04-22T10:41:58.870Z,28.10
2019-04-22T10:44:33.279Z,27.60
2019-04-22T10:47:06.450Z,27.50
2019-04-22T10:49:40.405Z,27.80
2019-04-22T10:52:14.004Z,27.80
2019-04-22T10:54:47.835Z,26.60
2019-04-22T10:57:22.101Z,26.90
2019-04-22T10:59:56.499Z,27.10
2019-04-22T11:02:29.861Z,27.20
2019-04-22T11:05:04.043Z,27.00
2019-04-22T11:07:44.241Z,27.00
2019-04-22T11:10:27.346Z,28.10
2019-04-22T11:12:45.219Z,28.10
2019-04-22T11:15:18.837Z,27.20
2019-04-22T11:17:53.531Z,27.30
2019-04-22T11:20:26.168Z,27.30
2019-04-22T11:23:00.684Z,27.10
2019-04-22T11:25:34.091Z,27.50
2019-04-22T11:28:09.611Z,27.60
2019-04-22T11:30:42.873Z,27.20
2019-04-22T11:33:18.279Z,27.20
2019-04-22T11:35:52.023Z,27.50
2019-04-22T11:38:24.729Z,27.20
2019-04-22T11:41:00.028Z,27.70
2019-04-22T11:43:32.344Z,27.70
2019-04-22T11:46:05.437Z,27.90
2019-04-22T11:48:40.121Z,28.30
2019-04-22T11:51:14.011Z,28.40
2019-04-22T11:53:49.130Z,29.40
2019-04-22T11:56:22.999Z,29.60
2019-04-22T11:58:57.087Z,29.50
2019-04-22T12:01:30.808Z,29.50
2019-04-22T12:04:04.120Z,29.70
2019-04-22T12:06:39.927Z,29.60
2019-04-22T12:09:12.679Z,29.60
2019-04-22T12:11:46.906Z,29.60
2019-04-22T12:14:20.120Z,29.60
2019-04-22T12:16:55.326Z,29.80
2019-04-22T12:19:29.387Z,29.80
2019-04-22T12:22:02.898Z,29.70
2019-04-22T12:24:36.399Z,29.70
2019-04-22T12:27:10.511Z,29.30
2019-04-22T12:29:43.027Z,29.30
2019-04-22T12:32:17.783Z,29.40
2019-04-22T12:34:51.289Z,28.80
2019-04-22T12:37:31.560Z,28.30
2019-04-22T12:40:00.381Z,28.40
2019-04-22T12:42:33.229Z,28.40
2019-04-22T12:45:08.266Z,28.60
2019-04-22T12:47:42.086Z,29.10
2019-04-22T12:50:20.508Z,28.30
2019-04-22T12:52:55.375Z,28.30
2019-04-22T12:55:21.991Z,28.30
2019-04-22T12:57:58.905Z,28.60
2019-04-22T13:00:30.208Z,28.80
2019-04-22T13:03:03.133Z,28.50
2019-04-22T13:05:37.561Z,28.20
2019-04-22T13:08:11.605Z,27.90
2019-04-22T13:10:53.323Z,28.50
2019-04-22T13:13:18.895Z,28.50
2019-04-22T13:15:52.806Z,28.80
2019-04-22T13:18:35.252Z,28.60
2019-04-22T13:20:58.580Z,28.60
2019-04-22T13:23:33.881Z,28.90
2019-04-22T13:26:07.230Z,29.20
2019-04-22T13:28:40.960Z,29.40
2019-04-22T13:31:14.216Z,29.40
2019-04-22T13:33:51.287Z,29.60
2019-04-22T13:36:23.715Z,29.20
2019-04-22T13:38:56.155Z,29.00
2019-04-22T13:41:39.608Z,29.00
2019-04-22T13:44:03.638Z,29.10
2019-04-22T13:46:38.825Z,29.00
2019-04-22T13:49:42.759Z,29.30
2019-04-22T13:54:48.885Z,29.20
2019-04-22T13:57:10.570Z,29.10
2019-04-22T13:59:33.262Z,29.30
2019-04-22T14:02:16.876Z,29.80
2019-04-22T14:04:50.616Z,29.80
2019-04-22T14:07:25.128Z,29.80
2019-04-22T14:09:58.331Z,29.70
2019-04-22T14:12:32.932Z,29.70
2019-04-22T14:15:06.271Z,29.80
2019-04-22T14:17:39.334Z,30.00
2019-04-22T14:20:13.209Z,29.80
2019-04-22T14:22:46.732Z,29.50
2019-04-22T14:25:20.758Z,29.40
2019-04-22T14:28:00.217Z,29.60
2019-04-22T14:30:28.614Z,29.70
2019-04-22T14:33:02.714Z,29.40
2019-04-22T14:35:35.432Z,29.30
2019-04-22T14:38:10.180Z,29.40
2019-04-22T14:40:43.544Z,29.60
2019-04-22T14:43:37.995Z,29.10
2019-04-22T14:51:16.012Z,29.90
2019-04-22T14:53:50.317Z,29.80
2019-04-22T14:56:06.546Z,30.00
2019-04-22T14:58:38.950Z,30.00
2019-04-22T15:01:12.924Z,30.00
2019-04-22T15:03:48.285Z,29.80
2019-04-22T15:06:20.204Z,30.00
2019-04-22T15:08:56.204Z,30.00
2019-04-22T15:11:28.871Z,30.00
2019-04-22T15:14:03.166Z,30.20
2019-04-22T15:16:48.778Z,30.50
2019-04-22T15:19:39.926Z,29.80
2019-04-22T15:22:13.306Z,29.20
2019-04-22T15:24:47.695Z,29.40
2019-04-22T15:27:22.452Z,29.30
2019-04-22T15:29:54.883Z,29.50
2019-04-22T15:32:29.493Z,29.20
2019-04-22T15:35:02.044Z,29.20
2019-04-22T15:37:36.990Z,29.80
2019-04-22T15:40:10.951Z,29.70
2019-04-22T15:42:43.805Z,29.10
2019-04-22T15:45:18.730Z,28.50
2019-04-22T15:47:52.378Z,27.90
2019-04-22T15:50:24.808Z,28.00
2019-04-22T15:53:00.748Z,28.00
2019-04-22T15:55:32.614Z,28.30
2019-04-22T15:58:06.102Z,28.50
2019-04-22T16:00:51.814Z,28.10
2019-04-22T16:03:14.463Z,28.20
2019-04-22T16:05:48.029Z,27.80
2019-04-22T16:08:21.442Z,28.00
2019-04-22T16:10:55.872Z,27.60
2019-04-22T16:13:32.240Z,27.60
2019-04-22T16:16:02.712Z,28.00
2019-04-22T16:18:36.316Z,28.10
2019-04-22T16:21:11.188Z,27.50
2019-04-22T16:23:50.137Z,27.60
2019-04-22T16:39:47.244Z,27.90
2019-04-22T16:42:33.250Z,27.90
2019-04-22T16:44:53.525Z,27.90
2019-04-22T16:47:31.437Z,27.90
2019-04-22T16:50:05.882Z,27.20
2019-04-22T16:52:39.914Z,27.20
2019-04-22T16:55:14.717Z,27.00
2019-04-22T16:57:48.219Z,27.20
2019-04-22T17:00:22.574Z,27.20
2019-04-22T17:03:10.860Z,27.00
2019-04-22T17:05:49.878Z,27.50
2019-04-22T17:08:28.561Z,27.20
2019-04-22T17:11:01.955Z,27.20
2019-04-22T17:13:36.662Z,27.40
2019-04-22T17:16:09.822Z,27.30
2019-04-22T17:18:43.572Z,27.50
2019-04-22T17:21:17.544Z,27.60
2019-04-22T17:23:50.019Z,27.70
2019-04-22T17:26:26.346Z,27.90
2019-04-22T17:29:02.485Z,28.10
2019-04-22T17:31:32.408Z,28.10
2019-04-22T17:34:06.882Z,28.10
2019-04-22T17:36:40.544Z,28.20
2019-04-22T17:39:29.515Z,28.20
2019-04-22T17:42:05.067Z,28.20
2019-04-22T17:47:16.716Z,28.30
2019-04-22T17:50:00.217Z,28.40
2019-04-22T17:52:30.386Z,28.30
2019-04-22T17:54:57.230Z,28.70
2019-04-22T17:57:34.568Z,28.50
2019-04-22T18:00:06.180Z,28.60
2019-04-22T18:02:39.650Z,28.70
2019-04-22T18:05:03.516Z,28.80
2019-04-22T18:07:52.595Z,29.10
2019-04-22T18:13:12.054Z,29.20
2019-04-22T18:15:35.269Z,29.30
2019-04-22T18:18:12.308Z,29.40
2019-04-22T18:20:33.614Z,29.40
2019-04-22T18:23:03.638Z,29.50
2019-04-22T18:25:44.962Z,29.60
2019-04-22T18:28:25.177Z,29.60
2019-04-22T18:30:53.018Z,29.80
2019-04-22T18:33:28.709Z,29.40
2019-04-22T18:36:02.191Z,29.70
2019-04-22T18:38:46.701Z,29.80
2019-04-22T18:41:04.746Z,29.60
2019-04-22T18:43:48.591Z,29.60
2019-04-22T18:46:18.891Z,29.80
2019-04-22T18:48:54.065Z,30.00
2019-04-22T18:51:43.802Z,30.50
2019-04-22T18:54:36.810Z,31.30
2019-04-22T18:57:07.439Z,30.60
2019-04-22T18:59:27.726Z,31.00
2019-04-22T19:02:03.804Z,31.70
2019-04-22T19:04:41.001Z,31.70
2019-04-22T19:07:32.461Z,31.00
2019-04-22T19:10:04.885Z,31.20
2019-04-22T19:15:13.825Z,32.40
2019-04-22T19:17:47.667Z,34.00
2019-04-22T19:20:26.818Z,33.90
2019-04-22T19:22:51.557Z,34.70
2019-04-22T19:25:17.288Z,34.70
2019-04-22T19:27:54.500Z,35.20
2019-04-22T19:30:30.315Z,36.20
2019-04-22T19:33:11.390Z,36.20
2019-04-22T19:35:35.168Z,36.80
2019-04-22T19:38:04.355Z,38.10
2019-04-22T19:40:54.927Z,38.00
2019-04-22T19:43:27.097Z,38.50
2019-04-22T19:45:55.879Z,38.50
2019-04-22T19:48:39.697Z,38.60
2019-04-22T19:53:40.753Z,39.30
2019-04-22T19:56:07.189Z,39.70
2019-04-22T19:58:37.222Z,39.70
2019-04-22T20:01:22.166Z,39.40
2019-04-22T20:04:13.719Z,40.20
2019-04-22T20:06:53.889Z,40.20
2019-04-22T20:09:30.077Z,40.40
2019-04-22T20:12:01.027Z,40.30
2019-04-22T20:14:38.737Z,40.60
2019-04-22T20:17:00.708Z,40.60
2019-04-22T20:19:50.167Z,40.80
2019-04-22T20:22:12.761Z,40.80
2019-04-22T20:24:43.741Z,40.70
2019-04-22T20:27:24.789Z,40.90
2019-04-22T20:29:58.076Z,41.40
2019-04-22T20:32:36.049Z,41.70
2019-04-22T20:35:07.950Z,42.00
2019-04-22T20:40:17.994Z,42.10
2019-04-22T20:42:54.088Z,42.70
2019-04-22T20:45:24.458Z,42.70
2019-04-22T20:47:49.199Z,43.20
2019-04-22T20:50:29.397Z,43.80
2019-04-22T20:53:07.330Z,43.40
2019-04-22T20:55:40.407Z,43.20
2019-04-22T20:58:13.550Z,43.40
2019-04-22T21:00:39.036Z,43.50
2019-04-22T21:03:06.493Z,43.70
2019-04-22T21:05:44.479Z,44.10
2019-04-22T21:08:24.379Z,44.40
2019-04-22T21:10:50.776Z,44.40
2019-04-22T21:13:25.561Z,44.60
2019-04-22T21:16:08.945Z,44.60
2019-04-22T21:18:36.365Z,44.80
2019-04-22T21:21:13.511Z,45.20
2019-04-22T21:23:42.413Z,45.20
2019-04-22T21:26:21.328Z,45.20
2019-04-22T21:28:53.234Z,45.40
2019-04-22T21:31:32.405Z,45.40
2019-04-22T21:33:59.445Z,45.20
2019-04-22T21:36:40.375Z,46.00
2019-04-22T21:39:08.242Z,46.50
2019-04-22T21:41:44.731Z,46.40
2019-04-22T21:44:14.320Z,46.20
2019-04-22T21:46:57.309Z,46.30
2019-04-22T21:49:25.567Z,45.40
2019-04-22T21:52:01.220Z,45.40
2019-04-22T21:54:34.648Z,45.20
2019-04-22T21:57:24.671Z,45.20
2019-04-22T21:59:56.417Z,45.10
2019-04-22T22:02:28.475Z,45.20
2019-04-22T22:04:52.710Z,45.20
2019-04-22T22:07:17.279Z,45.10
2019-04-22T22:10:04.254Z,45.50
2019-04-22T22:12:40.863Z,45.40
2019-04-22T22:15:13.516Z,45.40
2019-04-22T22:17:48.589Z,45.70
2019-04-22T22:20:14.639Z,46.00
2019-04-22T22:23:03.710Z,46.00
2019-04-22T22:25:28.051Z,46.70
2019-04-22T22:28:16.671Z,46.70
2019-04-22T22:33:10.989Z,47.20
2019-04-22T22:35:45.580Z,47.50
2019-04-22T22:38:19.443Z,47.20
2019-04-22T22:40:37.920Z,47.50
2019-04-22T22:43:17.176Z,47.50
2019-04-22T22:45:52.812Z,48.00
2019-04-22T22:48:41.375Z,48.90
2019-04-22T22:51:10.014Z,49.20
2019-04-22T22:53:44.704Z,48.70
2019-04-22T22:56:16.026Z,49.50
2019-04-22T22:58:52.339Z,49.40
2019-04-22T23:01:23.412Z,48.40
2019-04-22T23:03:55.947Z,49.20
2019-04-22T23:06:40.647Z,49.30
2019-04-22T23:09:09.558Z,50.40
2019-04-22T23:12:02.182Z,50.40
2019-04-22T23:14:17.634Z,50.60
2019-04-22T23:16:39.844Z,51.40
2019-04-22T23:19:01.983Z,51.40
2019-04-22T23:21:41.689Z,51.00
2019-04-22T23:24:29.438Z,49.90
2019-04-22T23:26:59.653Z,50.20
2019-04-22T23:29:34.319Z,49.50
2019-04-22T23:32:14.238Z,49.60
2019-04-22T23:34:50.053Z,49.60
2019-04-22T23:37:23.217Z,49.60
2019-04-22T23:40:13.379Z,49.40
2019-04-22T23:42:33.516Z,49.30
2019-04-22T23:45:12.292Z,49.30
2019-04-22T23:47:35.126Z,49.40
2019-04-22T23:50:22.401Z,49.40
2019-04-22T23:52:54.443Z,49.40
2019-04-22T23:55:26.125Z,49.20
2019-04-22T23:58:27.576Z,49.30
